Time;durP1;ratioP1;P1;durP2;ratioP2;P2;SDS_P1;SDS_P2;PMS_P1;PMS_P2;Temp;Humidity;BMP_temperature;BMP_pressure;BME280_temperature;BME280_humidity;BME280_pressure;Samples;Min_cycle;Max_cycle;Signal;HPM_P1;HPM_P2
2022/04/15 00:01:32;;;;;;;11.73;7.40;;;8.90;99.90;;;;;;5059861;28;20636;-80
2022/04/15 00:03:58;;;;;;;10.05;5.70;;;8.90;99.90;;;;;;5047042;28;20029;-83
2022/04/15 00:06:25;;;;;;;13.40;6.90;;;8.80;99.90;;;;;;5047162;28;20036;-80
2022/04/15 00:08:52;;;;;;;12.25;6.95;;;8.80;99.90;;;;;;5058894;28;20021;-82
2022/04/15 00:11:19;;;;;;;7.18;5.72;;;8.80;99.90;;;;;;5013074;28;20024;-81
2022/04/15 00:13:47;;;;;;;12.82;7.70;;;8.80;99.90;;;;;;5038068;28;20031;-82
2022/04/15 00:16:58;;;;;;;14.27;7.75;;;8.80;99.90;;;;;;5082429;28;20020;-82
2022/04/15 00:20:13;;;;;;;10.75;7.35;;;8.80;99.90;;;;;;5032443;28;20035;-84
2022/04/15 00:23:46;;;;;;;8.93;5.45;;;8.70;99.90;;;;;;4934086;28;20057;-78
2022/04/15 00:26:18;;;;;;;12.95;7.05;;;8.60;99.90;;;;;;4938966;28;20541;-80
2022/04/15 00:28:46;;;;;;;11.93;7.22;;;8.70;99.90;;;;;;4976780;28;20137;-80
2022/04/15 00:32:05;;;;;;;12.15;8.32;;;8.70;99.90;;;;;;4950031;28;20532;-80
2022/04/15 00:35:29;;;;;;;12.40;7.55;;;8.60;99.90;;;;;;4972143;28;20030;-80
2022/04/15 00:38:17;;;;;;;10.18;6.82;;;8.60;99.90;;;;;;4956293;28;20038;-80
2022/04/15 00:41:12;;;;;;;8.07;5.72;;;8.60;99.90;;;;;;4964455;28;20398;-80
2022/04/15 00:43:46;;;;;;;12.05;7.00;;;8.60;99.90;;;;;;4962973;28;20042;-81
2022/04/15 00:46:13;;;;;;;8.73;7.07;;;8.50;99.90;;;;;;5037851;28;20045;-81
2022/04/15 00:48:56;;;;;;;11.23;8.45;;;8.50;99.90;;;;;;5065199;28;20025;-79
2022/04/15 00:51:46;;;;;;;10.00;7.70;;;8.40;99.90;;;;;;5065093;28;20028;-85
2022/04/15 00:54:23;;;;;;;15.82;8.90;;;8.40;99.90;;;;;;5083314;28;20378;-86
2022/04/15 00:56:52;;;;;;;10.27;8.30;;;8.40;99.90;;;;;;5065635;28;20406;-87
2022/04/15 00:59:24;;;;;;;15.35;9.50;;;8.40;99.90;;;;;;5031096;28;20039;-82
2022/04/15 01:01:53;;;;;;;14.23;9.00;;;8.40;99.90;;;;;;5066969;28;20040;-81
2022/04/15 01:04:23;;;;;;;15.18;9.13;;;8.40;99.90;;;;;;5083613;28;20039;-86
2022/04/15 01:06:50;;;;;;;17.58;10.32;;;8.30;99.90;;;;;;5066604;28;20033;-86
2022/04/15 01:09:20;;;;;;;13.30;8.98;;;8.30;99.90;;;;;;5045840;28;20044;-87
2022/04/15 01:11:54;;;;;;;15.48;9.68;;;8.30;99.90;;;;;;5066040;28;20039;-87
2022/04/15 01:14:26;;;;;;;13.52;10.05;;;8.30;99.90;;;;;;5064620;28;20032;-84
2022/04/15 01:17:02;;;;;;;14.02;9.52;;;8.20;99.90;;;;;;5035206;28;20051;-84
2022/04/15 01:19:42;;;;;;;14.80;9.82;;;8.20;99.90;;;;;;5065393;28;20040;-82
2022/04/15 01:22:24;;;;;;;15.57;12.07;;;8.20;99.90;;;;;;5079429;28;20040;-81
2022/04/15 01:24:57;;;;;;;27.77;13.73;;;8.30;99.90;;;;;;5083303;28;20025;-82
2022/04/15 01:27:28;;;;;;;28.85;16.25;;;8.40;99.90;;;;;;5063692;28;20032;-82
2022/04/15 01:29:55;;;;;;;14.30;12.77;;;8.50;99.90;;;;;;5045890;28;20040;-81
2022/04/15 01:32:21;;;;;;;15.75;12.10;;;8.50;99.90;;;;;;5047479;28;20032;-80
2022/04/15 01:34:48;;;;;;;31.73;16.08;;;8.60;99.90;;;;;;5065014;28;20027;-84
2022/04/15 01:37:16;;;;;;;19.98;13.48;;;8.70;99.90;;;;;;5046806;28;20039;-83
2022/04/15 01:39:43;;;;;;;21.48;15.02;;;8.70;99.90;;;;;;5045817;28;20035;-85
2022/04/15 01:42:17;;;;;;;25.20;13.73;;;8.70;99.90;;;;;;5068942;28;20047;-85
2022/04/15 01:44:45;;;;;;;23.88;16.05;;;8.80;99.90;;;;;;5067945;28;20031;-85
2022/04/15 01:48:54;;;;;;;18.38;10.73;;;8.80;99.90;;;;;;5070028;28;20031;-83
2022/04/15 01:51:25;;;;;;;15.73;11.48;;;8.80;99.90;;;;;;5065206;28;20035;-80
2022/04/15 01:54:03;;;;;;;15.15;10.68;;;8.70;99.90;;;;;;5083300;28;20551;-81
2022/04/15 01:56:44;;;;;;;19.05;11.40;;;8.70;99.90;;;;;;5056116;28;20056;-82
2022/04/15 01:59:16;;;;;;;15.10;11.38;;;8.70;99.90;;;;;;5063337;28;20043;-84
2022/04/15 02:01:43;;;;;;;15.05;11.50;;;8.70;99.90;;;;;;5085152;28;20031;-84
2022/04/15 02:04:14;;;;;;;19.00;12.98;;;8.80;99.90;;;;;;5053031;28;20036;-82
2022/04/15 02:06:44;;;;;;;22.45;13.85;;;8.80;99.90;;;;;;5066841;28;20052;-81
2022/04/15 02:09:22;;;;;;;14.00;10.30;;;8.80;99.90;;;;;;5084510;28;20051;-83
2022/04/15 02:12:09;;;;;;;14.50;10.15;;;8.80;99.90;;;;;;5053388;28;20036;-82
2022/04/15 02:14:39;;;;;;;14.77;10.82;;;8.80;99.90;;;;;;5085809;28;20471;-84
2022/04/15 02:17:10;;;;;;;11.05;9.63;;;8.80;99.90;;;;;;5068827;28;20046;-83
2022/04/15 02:19:36;;;;;;;14.95;10.13;;;8.80;99.90;;;;;;5048545;28;20041;-83
2022/04/15 02:22:03;;;;;;;12.27;9.10;;;8.80;99.90;;;;;;5070681;28;20032;-82
2022/04/15 02:24:29;;;;;;;12.52;10.40;;;8.70;99.90;;;;;;5052788;28;20035;-79
2022/04/15 02:26:56;;;;;;;17.50;10.20;;;8.60;99.90;;;;;;5068440;28;20020;-84
2022/04/15 02:29:24;;;;;;;13.80;8.48;;;8.60;99.90;;;;;;5033388;28;20082;-88
2022/04/15 02:31:50;;;;;;;10.65;9.55;;;8.70;99.90;;;;;;5052112;28;20024;-82
2022/04/15 02:34:26;;;;;;;13.07;8.98;;;8.60;99.90;;;;;;5052812;28;20028;-86
2022/04/15 02:36:52;;;;;;;13.23;9.68;;;8.60;99.90;;;;;;5070117;28;20115;-85
2022/04/15 02:39:19;;;;;;;9.52;8.52;;;8.60;99.90;;;;;;5032918;28;20039;-81
2022/04/15 02:41:45;;;;;;;10.98;8.13;;;8.60;99.90;;;;;;5027588;28;20059;-82
2022/04/15 02:44:12;;;;;;;12.55;10.25;;;8.60;99.90;;;;;;5041978;28;20037;-78
2022/04/15 02:46:38;;;;;;;15.88;12.27;;;8.60;99.90;;;;;;5028294;28;20029;-81
2022/04/15 02:49:05;;;;;;;14.90;11.85;;;8.60;99.90;;;;;;5008717;28;20025;-82
2022/04/15 02:51:33;;;;;;;12.50;9.63;;;8.60;99.90;;;;;;4994534;28;20061;-80
2022/04/15 02:53:59;;;;;;;13.82;9.25;;;8.60;99.90;;;;;;5026630;28;22228;-81
2022/04/15 02:56:26;;;;;;;10.60;9.38;;;8.60;99.90;;;;;;5012215;28;20503;-82
2022/04/15 02:58:52;;;;;;;22.85;13.25;;;8.60;99.90;;;;;;5006425;28;20037;-80
2022/04/15 03:01:19;;;;;;;15.43;10.70;;;8.70;99.90;;;;;;5005747;28;20397;-79
2022/04/15 03:03:48;;;;;;;14.20;9.32;;;8.70;99.90;;;;;;5023842;28;20029;-82
2022/04/15 03:06:14;;;;;;;13.75;10.73;;;8.70;99.90;;;;;;5011240;28;20029;-82
2022/04/15 03:08:48;;;;;;;15.88;10.55;;;8.70;99.90;;;;;;5009994;28;20052;-85
2022/04/15 03:11:59;;;;;;;18.13;12.02;;;8.70;99.90;;;;;;5009168;28;20040;-83
2022/04/15 03:14:26;;;;;;;14.32;9.88;;;8.80;99.90;;;;;;5014177;28;20037;-83
2022/04/15 03:16:52;;;;;;;15.80;10.32;;;8.80;99.90;;;;;;4996482;28;20033;-84
2022/04/15 03:19:19;;;;;;;15.57;10.52;;;8.80;99.90;;;;;;5029899;28;20602;-88
2022/04/15 03:21:58;;;;;;;16.35;10.15;;;8.80;99.90;;;;;;5012370;28;20466;-94
2022/04/15 03:24:26;;;;;;;13.73;11.13;;;8.80;99.90;;;;;;5007906;28;20026;-94
2022/04/15 03:26:55;;;;;;;14.27;10.15;;;8.90;99.90;;;;;;4987769;28;20046;-92
2022/04/15 03:29:22;;;;;;;12.30;9.95;;;8.90;99.90;;;;;;4998260;28;20388;-81
2022/04/15 03:31:52;;;;;;;17.73;12.57;;;8.90;99.90;;;;;;5027016;28;20060;-85
2022/04/15 03:34:29;;;;;;;19.27;14.30;;;8.90;99.90;;;;;;5008148;28;20033;-83
2022/04/15 03:36:56;;;;;;;20.15;14.50;;;9.00;99.90;;;;;;5031514;28;20036;-84
2022/04/15 03:39:26;;;;;;;24.90;17.85;;;8.90;99.90;;;;;;5039213;28;20032;-85
2022/04/15 03:41:55;;;;;;;20.98;13.15;;;8.90;99.90;;;;;;5056181;28;20024;-84
2022/04/15 03:44:24;;;;;;;20.27;10.77;;;9.00;99.90;;;;;;5063091;28;20496;-84
2022/04/15 03:46:57;;;;;;;18.45;12.15;;;9.00;99.90;;;;;;5027571;28;20052;-85
2022/04/15 03:49:27;;;;;;;18.83;12.80;;;9.00;99.90;;;;;;5027789;28;20045;-85
2022/04/15 03:52:03;;;;;;;21.10;12.30;;;9.00;99.90;;;;;;5052180;28;20040;-84
2022/04/15 03:54:35;;;;;;;15.57;10.97;;;9.00;99.90;;;;;;5060184;28;20270;-83
2022/04/15 03:57:02;;;;;;;16.92;11.00;;;9.00;99.90;;;;;;5040950;28;20033;-88
2022/04/15 03:59:40;;;;;;;15.00;10.40;;;8.90;99.90;;;;;;5020185;28;21282;-91
2022/04/15 04:02:16;;;;;;;14.90;9.75;;;8.80;99.90;;;;;;5029625;28;20063;-93
2022/04/15 04:04:49;;;;;;;13.13;9.65;;;8.70;99.90;;;;;;4986838;28;20028;-93
2022/04/15 04:07:29;;;;;;;15.77;10.50;;;8.60;99.90;;;;;;5034491;28;20506;-92
2022/04/15 04:10:45;;;;;;;12.90;8.52;;;8.50;99.90;;;;;;5032878;28;20476;-93
2022/04/15 04:13:24;;;;;;;14.60;10.90;;;8.50;99.90;;;;;;5018381;28;20044;-93
2022/04/15 04:16:25;;;;;;;13.18;9.35;;;8.40;99.90;;;;;;5023952;28;20044;-92
2022/04/15 04:18:54;;;;;;;12.30;9.30;;;8.30;99.90;;;;;;4995238;28;20500;-92
2022/04/15 04:21:20;;;;;;;13.05;8.77;;;8.30;99.90;;;;;;5011564;28;20040;-91
2022/04/15 04:23:48;;;;;;;12.65;9.05;;;8.20;99.90;;;;;;5017108;28;20037;-91
2022/04/15 04:26:15;;;;;;;13.93;9.05;;;8.20;99.90;;;;;;5029411;28;20475;-91
2022/04/15 04:28:41;;;;;;;11.60;8.23;;;8.30;99.90;;;;;;5037094;28;20048;-92
2022/04/15 04:31:08;;;;;;;15.15;8.50;;;8.30;99.90;;;;;;5032667;28;20497;-92
2022/04/15 04:33:34;;;;;;;12.10;8.75;;;8.20;99.90;;;;;;5047569;28;20387;-91
2022/04/15 04:36:01;;;;;;;12.18;9.10;;;8.20;99.90;;;;;;5017820;28;20036;-91
2022/04/15 04:38:27;;;;;;;9.43;8.10;;;8.20;99.90;;;;;;5051360;28;20036;-91
2022/04/15 04:40:56;;;;;;;10.10;8.18;;;8.10;99.90;;;;;;5032995;28;20032;-91
2022/04/15 04:43:23;;;;;;;12.90;8.48;;;8.00;99.90;;;;;;5053281;28;20039;-91
2022/04/15 04:45:49;;;;;;;11.48;7.63;;;8.00;99.90;;;;;;5024005;28;20032;-92
2022/04/15 04:48:17;;;;;;;10.75;7.10;;;7.90;99.90;;;;;;5039614;28;20032;-91
2022/04/15 04:50:46;;;;;;;12.38;7.45;;;7.90;99.90;;;;;;5038740;28;20032;-91
2022/04/15 04:53:12;;;;;;;11.43;7.55;;;7.90;99.90;;;;;;5036104;28;20044;-91
2022/04/15 04:55:39;;;;;;;9.70;7.38;;;7.80;99.90;;;;;;5041541;28;20024;-90
2022/04/15 04:58:05;;;;;;;11.68;7.45;;;7.80;99.90;;;;;;5038823;28;20048;-92
2022/04/15 05:00:32;;;;;;;9.88;7.68;;;7.80;99.90;;;;;;5038609;28;20040;-91
2022/04/15 05:02:59;;;;;;;9.27;7.68;;;7.80;99.90;;;;;;5036639;28;20032;-90
2022/04/15 05:05:26;;;;;;;13.30;8.20;;;7.80;99.90;;;;;;5033798;28;20016;-90
2022/04/15 05:07:53;;;;;;;10.10;7.07;;;7.80;99.90;;;;;;5017346;28;20036;-91
2022/04/15 05:10:19;;;;;;;10.40;6.90;;;7.80;99.90;;;;;;5033244;28;20044;-90
2022/04/15 05:12:48;;;;;;;8.38;6.53;;;7.80;99.90;;;;;;5037196;28;20058;-91
2022/04/15 05:15:15;;;;;;;8.63;6.38;;;7.80;99.90;;;;;;5040636;28;20040;-91
2022/04/15 05:17:42;;;;;;;8.60;6.45;;;7.80;99.90;;;;;;5036201;28;20391;-90
2022/04/15 05:20:18;;;;;;;10.95;6.93;;;7.80;99.90;;;;;;5028112;28;20052;-89
2022/04/15 05:23:04;;;;;;;10.02;6.72;;;7.80;99.90;;;;;;5017651;28;20040;-92
2022/04/15 05:25:44;;;;;;;11.15;7.28;;;7.90;99.90;;;;;;5020147;28;20029;-88
2022/04/15 05:28:23;;;;;;;9.82;6.28;;;7.90;99.90;;;;;;5014468;28;20041;-82
2022/04/15 05:31:38;;;;;;;10.70;7.40;;;8.00;99.90;;;;;;5044108;28;20053;-84
2022/04/15 05:34:39;;;;;;;8.40;6.18;;;8.10;99.90;;;;;;5035851;28;20048;-83
2022/04/15 05:37:11;;;;;;;9.00;6.18;;;8.20;99.90;;;;;;5022590;28;20040;-83
2022/04/15 05:39:41;;;;;;;11.30;6.63;;;8.20;99.90;;;;;;5038564;28;20037;-83
2022/04/15 05:42:11;;;;;;;9.88;6.40;;;8.20;99.90;;;;;;5040850;28;20203;-83
2022/04/15 05:48:26;;;;;;;10.75;6.93;;;8.20;99.90;;;;;;5032131;28;20045;-83
2022/04/15 05:51:04;;;;;;;10.23;6.65;;;8.30;99.90;;;;;;5010337;28;20609;-83
2022/04/15 05:53:31;;;;;;;11.70;6.05;;;8.40;99.90;;;;;;5016331;28;20531;-83
2022/04/15 05:59:28;;;;;;;10.10;5.68;;;8.50;99.90;;;;;;5014499;28;20056;-83
2022/04/15 06:02:28;;;;;;;11.65;7.20;;;8.70;99.90;;;;;;5049710;28;20041;-83
2022/04/15 06:05:23;;;;;;;11.25;6.78;;;8.80;99.90;;;;;;5018208;28;20025;-81
2022/04/15 06:08:54;;;;;;;9.02;5.75;;;9.00;99.90;;;;;;5052703;28;20032;-82
2022/04/15 06:11:36;;;;;;;6.82;5.55;;;9.20;99.90;;;;;;5043652;28;20021;-82
2022/04/15 06:14:36;;;;;;;;;;;9.40;99.90;;;;;;5054063;28;20035;-82
2022/04/15 06:17:47;;;;;;;6.75;4.60;;;9.60;99.90;;;;;;5049937;28;20283;-82
2022/04/15 06:20:30;;;;;;;5.80;3.28;;;9.70;99.90;;;;;;5062765;28;20059;-82
2022/04/15 06:23:18;;;;;;;6.07;4.60;;;9.90;99.90;;;;;;5036035;28;20498;-82
2022/04/15 06:25:46;;;;;;;9.98;5.30;;;9.90;99.90;;;;;;5029967;28;20028;-82
2022/04/15 06:28:26;;;;;;;8.07;4.13;;;10.00;99.90;;;;;;5064003;28;20396;-82
2022/04/15 06:31:52;;;;;;;8.15;4.90;;;10.20;99.90;;;;;;5055760;28;20384;-82
2022/04/15 06:34:53;;;;;;;9.05;4.30;;;10.30;99.90;;;;;;5046928;28;20036;-81
2022/04/15 06:37:32;;;;;;;6.03;3.50;;;10.40;99.90;;;;;;5037229;28;20025;-81
2022/04/15 06:40:19;;;;;;;5.00;3.70;;;10.60;99.90;;;;;;5044029;28;20025;-81
2022/04/15 06:42:54;;;;;;;5.53;3.95;;;10.60;99.90;;;;;;5037959;28;20040;-82
2022/04/15 06:45:35;;;;;;;6.10;3.47;;;10.70;99.90;;;;;;5016698;28;20073;-81
2022/04/15 06:48:38;;;;;;;3.60;3.20;;;10.80;99.90;;;;;;5034838;28;20033;-81
2022/04/15 06:51:37;;;;;;;3.95;3.00;;;11.10;99.90;;;;;;5051726;28;20387;-81
2022/04/15 06:54:35;;;;;;;3.35;2.25;;;11.50;99.90;;;;;;5017252;28;20357;-81
2022/04/15 06:57:07;;;;;;;5.15;1.85;;;11.70;99.90;;;;;;5031264;28;20027;-79
2022/04/15 06:59:34;;;;;;;3.95;1.50;;;11.80;99.90;;;;;;5043847;28;20040;-83
2022/04/15 07:02:28;;;;;;;2.95;1.50;;;11.90;99.90;;;;;;5049794;28;20058;-78
2022/04/15 07:05:05;;;;;;;3.63;1.58;;;12.10;99.90;;;;;;5058517;28;20036;-78
2022/04/15 07:07:57;;;;;;;3.08;1.55;;;12.20;99.90;;;;;;5035070;28;20037;-79
2022/04/15 07:10:28;;;;;;;3.88;1.33;;;12.40;99.90;;;;;;5031550;28;20033;-83
2022/04/15 07:13:26;;;;;;;6.65;1.55;;;12.40;99.90;;;;;;5045168;28;20029;-82
2022/04/15 07:16:05;;;;;;;5.15;2.28;;;12.20;99.90;;;;;;5036442;28;20055;-83
2022/04/15 07:18:46;;;;;;;8.93;5.25;;;12.00;99.90;;;;;;5016416;28;20055;-82
2022/04/15 07:22:13;;;;;;;6.25;3.28;;;11.80;99.90;;;;;;5031967;28;20377;-83
2022/04/15 07:24:47;;;;;;;3.88;1.90;;;11.60;99.90;;;;;;5049230;28;20036;-85
2022/04/15 07:27:15;;;;;;;2.38;0.90;;;11.50;99.90;;;;;;5031901;28;20045;-81
2022/04/15 07:29:48;;;;;;;2.47;0.85;;;11.50;99.90;;;;;;5044185;28;20041;-83
2022/04/15 07:32:31;;;;;;;3.53;1.90;;;11.50;99.90;;;;;;5039099;28;20394;-88
2022/04/15 07:36:10;;;;;;;;;;;;;;;;;;;;;
2022/04/15 07:39:24;;;;;;;6.30;2.70;;;11.50;99.90;;;;;;5026859;28;20389;-84
2022/04/15 07:42:14;;;;;;;5.95;2.92;;;11.40;99.90;;;;;;5031503;28;20033;-83
2022/04/15 07:44:47;;;;;;;2.72;1.30;;;11.30;99.90;;;;;;5018101;28;20412;-82
2022/04/15 07:51:51;;;;;;;4.18;1.20;;;11.10;99.90;;;;;;4992585;28;20030;-84
2022/04/15 07:54:51;;;;;;;3.55;1.45;;;11.20;99.90;;;;;;4967179;28;20383;-84
2022/04/15 07:57:35;;;;;;;3.50;1.10;;;11.10;99.90;;;;;;5051646;28;20048;-83
2022/04/15 08:00:25;;;;;;;6.00;1.10;;;11.10;99.90;;;;;;5060601;28;20020;-83
2022/04/15 08:02:55;;;;;;;5.18;1.52;;;11.10;99.90;;;;;;5029280;28;20024;-83
2022/04/15 08:05:24;;;;;;;4.38;1.60;;;11.10;99.90;;;;;;5031220;28;20032;-82
2022/04/15 08:08:24;;;;;;;4.13;1.63;;;11.10;99.90;;;;;;5047687;28;20071;-88
2022/04/15 08:14:03;;;;;;;10.60;2.72;;;11.00;99.90;;;;;;5086032;28;20047;-86
2022/04/15 08:16:38;;;;;;;4.95;1.92;;;11.00;99.90;;;;;;5053112;28;20046;-86
2022/04/15 08:19:09;;;;;;;4.60;1.50;;;10.90;99.90;;;;;;5050259;28;20055;-85
2022/04/15 08:21:51;;;;;;;5.32;2.00;;;10.90;99.90;;;;;;5055322;28;20028;-92
2022/04/15 08:24:59;;;;;;;5.97;1.75;;;11.00;99.90;;;;;;5041800;28;20040;-86
2022/04/15 08:27:31;;;;;;;5.70;2.10;;;11.00;99.90;;;;;;5010888;28;20025;-83
2022/04/15 08:30:01;;;;;;;3.00;1.60;;;11.10;99.90;;;;;;5012425;28;20054;-90
2022/04/15 08:32:35;;;;;;;5.80;2.63;;;11.20;99.90;;;;;;5009356;28;20025;-89
2022/04/15 08:35:27;;;;;;;6.25;2.03;;;11.20;99.90;;;;;;5029265;28;20048;-88
2022/04/15 08:38:14;;;;;;;4.70;2.22;;;11.20;99.90;;;;;;5007621;28;20041;-88
2022/04/15 08:40:50;;;;;;;4.55;2.58;;;11.20;99.90;;;;;;5007681;28;20025;-93
2022/04/15 08:43:19;;;;;;;4.22;1.85;;;11.30;99.90;;;;;;5028668;28;20412;-91
2022/04/15 08:45:53;;;;;;;4.18;2.30;;;11.30;99.90;;;;;;5014419;28;20064;-90
2022/04/15 08:48:25;;;;;;;4.05;1.95;;;11.40;99.90;;;;;;5025565;28;20033;-88
2022/04/15 08:51:11;;;;;;;7.15;4.22;;;11.40;99.90;;;;;;4998517;28;20049;-88
2022/04/15 08:54:18;;;;;;;6.38;4.05;;;11.40;99.90;;;;;;5013995;28;20041;-89
2022/04/15 08:57:18;;;;;;;9.23;3.55;;;11.40;99.90;;;;;;4987404;28;20371;-86
2022/04/15 09:04:33;;;;;;;7.32;2.53;;;11.40;99.90;;;;;;5010342;28;20029;-88
2022/04/15 09:07:46;;;;;;;4.53;2.55;;;11.40;99.90;;;;;;4990981;28;20504;-87
2022/04/15 09:14:38;;;;;;;6.10;3.45;;;11.40;99.90;;;;;;5006817;28;20141;-85
2022/04/15 09:17:34;;;;;;;4.82;2.80;;;11.20;99.90;;;;;;4990119;28;20045;-85
2022/04/15 09:20:42;;;;;;;5.78;3.13;;;11.20;99.90;;;;;;4987363;28;20041;-88
2022/04/15 09:23:42;;;;;;;5.35;2.67;;;11.20;99.90;;;;;;4954020;28;20625;-86
2022/04/15 09:26:22;;;;;;;;;;;;;;;;;;;;;
2022/04/15 09:29:32;;;;;;;7.30;4.13;;;11.30;99.90;;;;;;5063983;28;20048;-87
2022/04/15 09:32:48;;;;;;;5.53;3.28;;;11.40;99.90;;;;;;5028841;28;20047;-87
2022/04/15 09:36:07;;;;;;;5.20;2.70;;;11.50;99.90;;;;;;5034022;28;20060;-86
2022/04/15 09:38:59;;;;;;;6.30;2.70;;;11.50;99.90;;;;;;4983603;28;20049;-91
2022/04/15 09:45:15;;;;;;;13.73;7.22;;;11.50;99.90;;;;;;5020661;28;20053;-89
2022/04/15 09:53:18;;;;;;;7.33;3.57;;;11.40;99.90;;;;;;5004732;28;20037;-85
2022/04/15 09:56:49;;;;;;;7.18;4.80;;;11.50;99.90;;;;;;5044478;28;20056;-85
2022/04/15 10:00:17;;;;;;;5.28;3.53;;;11.40;99.90;;;;;;5006316;28;20036;-86
2022/04/15 10:02:51;;;;;;;5.50;3.58;;;11.40;99.90;;;;;;5038633;28;20036;-84
2022/04/15 10:05:31;;;;;;;5.35;4.32;;;11.40;99.90;;;;;;5072187;28;20024;-85
2022/04/15 10:21:04;;;;;;;6.25;3.95;;;11.60;99.90;;;;;;5042055;28;20571;-86
2022/04/15 10:29:03;;;;;;;8.23;4.70;;;11.70;99.90;;;;;;4955965;28;20042;-86
2022/04/15 10:41:46;;;;;;;8.82;3.90;;;11.60;99.90;;;;;;4965446;28;20042;-86
2022/04/15 10:44:39;;;;;;;5.45;3.72;;;11.60;99.90;;;;;;4948147;28;20393;-85
2022/04/15 10:47:40;;;;;;;;;;;;;;;;;;;;;
2022/04/15 10:51:02;;;;;;;;;;;;;;;;;;;;;
2022/04/15 11:01:13;;;;;;;9.35;4.85;;;11.90;99.90;;;;;;5028239;28;20036;-85
2022/04/15 11:01:57;;;;;;;11.20;6.07;;;12.00;99.90;;;;;;5004239;28;20041;-85
2022/04/15 11:05:05;;;;;;;7.90;5.35;;;12.00;99.90;;;;;;4975890;28;20670;-81
2022/04/15 11:09:12;;;;;;;;;;;;;;;;;;;;;
2022/04/15 11:29:56;;;;;;;5.50;3.97;;;12.60;99.90;;;;;;4930105;29;20035;-85
2022/04/15 11:36:35;;;;;;;4.93;3.70;;;12.70;99.90;;;;;;4998563;28;20050;-85
2022/04/15 11:39:47;;;;;;;5.05;3.50;;;12.70;99.90;;;;;;4975478;28;20041;-86
2022/04/15 11:43:35;;;;;;;5.63;3.08;;;12.80;99.90;;;;;;4990394;28;20029;-87
2022/04/15 11:46:18;;;;;;;5.07;3.22;;;12.80;99.90;;;;;;4964022;28;20434;-87
2022/04/15 11:49:30;;;;;;;4.35;3.17;;;13.00;99.90;;;;;;4963641;28;20042;-87
2022/04/15 11:52:28;;;;;;;;;;;13.10;99.90;;;;;;4932936;28;20038;-87
2022/04/15 11:55:39;;;;;;;5.18;3.95;;;13.30;99.90;;;;;;4929123;28;19909;-86
2022/04/15 11:59:32;;;;;;;;;;;;;;;;;;;;;
2022/04/15 12:03:46;;;;;;;;;;;;;;;;;;;;;
2022/04/15 12:07:35;;;;;;;4.32;3.22;;;13.50;99.90;;;;;;4862346;29;20045;-87
2022/04/15 12:19:26;;;;;;;4.93;3.13;;;13.30;99.90;;;;;;4823631;29;20492;-88
2022/04/15 12:22:43;;;;;;;5.70;4.28;;;13.40;99.90;;;;;;4871712;28;22060;-86
2022/04/15 12:30:26;;;;;;;6.05;3.75;;;13.70;99.90;;;;;;4920853;28;20055;-87
2022/04/15 12:41:54;;;;;;;4.88;2.83;;;13.90;99.90;;;;;;4924890;28;20525;-89
2022/04/15 12:46:13;;;;;;;7.20;4.35;;;13.90;99.90;;;;;;4957608;28;20113;-87
2022/04/15 12:49:01;;;;;;;4.57;3.33;;;13.90;99.90;;;;;;4966857;28;20037;-87
2022/04/15 12:51:49;;;;;;;6.32;4.70;;;13.90;99.90;;;;;;4951223;28;20034;-88
2022/04/15 13:00:28;;;;;;;4.40;3.10;;;14.00;99.90;;;;;;4985418;28;20058;-87
2022/04/15 13:04:11;;;;;;;3.40;2.70;;;14.10;99.90;;;;;;4911608;29;20040;-87
2022/04/15 13:06:47;;;;;;;3.17;2.33;;;14.20;99.90;;;;;;4878527;29;20044;-87
2022/04/15 13:09:39;;;;;;;3.80;3.05;;;14.30;99.90;;;;;;4916218;28;20418;-88
2022/04/15 13:13:06;;;;;;;4.03;2.92;;;14.30;99.90;;;;;;4843190;29;20446;-86
2022/04/15 13:20:26;;;;;;;5.68;2.80;;;14.40;99.90;;;;;;4907693;29;20059;-87
2022/04/15 13:23:35;;;;;;;4.72;3.40;;;14.30;99.90;;;;;;4909182;29;20041;-87
2022/04/15 13:27:48;;;;;;;2.97;2.63;;;14.30;99.90;;;;;;4891973;29;20496;-88
2022/04/15 13:33:59;;;;;;;5.97;3.55;;;14.40;99.90;;;;;;4893105;29;20032;-89
2022/04/15 13:36:47;;;;;;;9.77;5.90;;;14.40;99.90;;;;;;4909889;29;20345;-85
2022/04/15 13:51:35;;;;;;;3.42;3.08;;;14.70;99.90;;;;;;5059779;22;20053;-86
2022/04/15 13:57:03;;;;;;;4.43;2.30;;;14.60;99.90;;;;;;5044559;28;20045;-86
2022/04/15 13:59:44;;;;;;;4.07;3.50;;;14.50;99.90;;;;;;5025354;28;20036;-87
2022/04/15 14:05:51;;;;;;;4.13;3.42;;;14.40;99.90;;;;;;4993676;28;20034;-87
2022/04/15 14:09:02;;;;;;;9.25;6.10;;;14.50;99.90;;;;;;4985214;28;20508;-86
2022/04/15 14:21:38;;;;;;;;;;;14.40;99.90;;;;;;4753296;30;20055;-83
2022/04/15 14:32:59;;;;;;;2.78;2.53;;;14.20;99.90;;;;;;4715827;30;20059;-86
2022/04/15 14:35:43;;;;;;;4.13;2.55;;;14.20;99.90;;;;;;4730017;30;20055;-85
2022/04/15 14:38:16;;;;;;;3.05;2.10;;;14.20;99.90;;;;;;4762287;29;20109;-88
2022/04/15 14:41:41;;;;;;;5.72;3.13;;;14.30;99.90;;;;;;4824198;29;20191;-90
2022/04/15 14:45:05;;;;;;;2.47;1.77;;;14.20;99.90;;;;;;4879210;29;20047;-90
2022/04/15 14:48:10;;;;;;;2.83;1.90;;;14.10;99.90;;;;;;4925370;29;20039;-90
2022/04/15 14:51:31;;;;;;;2.50;1.80;;;14.00;99.90;;;;;;4977462;28;21416;-90
2022/04/15 14:55:03;;;;;;;2.22;1.40;;;13.90;99.90;;;;;;5013111;28;20053;-90
2022/04/15 14:57:52;;;;;;;2.60;1.80;;;13.90;99.90;;;;;;4978868;28;20492;-89
2022/04/15 15:01:11;;;;;;;;;;;;;;;;;;;;;
2022/04/15 15:04:12;;;;;;;2.95;1.85;;;13.80;99.90;;;;;;5011080;28;20493;-89
2022/04/15 15:06:59;;;;;;;3.28;2.42;;;13.60;99.90;;;;;;5000724;28;20033;-89
2022/04/15 15:10:32;;;;;;;3.88;2.45;;;13.50;99.90;;;;;;4919428;29;20040;-89
2022/04/15 15:14:15;;;;;;;3.97;2.30;;;13.40;99.90;;;;;;4928768;29;20036;-89
2022/04/15 15:22:13;;;;;;;4.35;2.42;;;13.30;99.90;;;;;;4915233;29;20503;-88
2022/04/15 15:37:12;;;;;;;3.88;2.55;;;13.20;99.90;;;;;;4944539;28;20034;-89
2022/04/15 15:40:05;;;;;;;3.75;3.05;;;13.20;99.90;;;;;;4920485;28;20046;-88
2022/04/15 15:43:20;;;;;;;2.30;1.63;;;13.20;99.90;;;;;;4998909;28;20056;-88
2022/04/15 15:46:18;;;;;;;;;;;;;;;;;;;;;
2022/04/15 15:53:19;;;;;;;4.10;1.67;;;13.10;99.90;;;;;;4999717;28;20045;-87
2022/04/15 15:56:22;;;;;;;2.92;2.38;;;13.10;99.90;;;;;;4979220;28;20034;-86
2022/04/15 16:04:42;;;;;;;2.70;1.80;;;13.00;99.90;;;;;;4973638;28;20046;-87
2022/04/15 16:08:04;;;;;;;3.45;2.13;;;13.10;99.90;;;;;;4824306;29;20041;-88
2022/04/15 16:12:01;;;;;;;3.10;2.05;;;13.00;99.90;;;;;;4851716;29;20492;-79
2022/04/15 16:14:37;;;;;;;3.28;2.80;;;12.90;99.90;;;;;;4876814;29;20392;-78
2022/04/15 16:17:14;;;;;;;4.07;2.25;;;12.80;99.90;;;;;;4908924;29;20044;-83
2022/04/15 16:19:42;;;;;;;2.83;2.25;;;12.80;99.90;;;;;;4974116;28;20061;-85
2022/04/15 16:22:08;;;;;;;7.88;4.88;;;12.70;99.90;;;;;;4987803;28;20021;-86
2022/04/15 16:24:47;;;;;;;12.07;8.82;;;12.70;99.90;;;;;;4955655;28;20030;-85
2022/04/15 16:31:51;;;;;;;6.50;4.95;;;12.60;99.90;;;;;;4931327;29;20047;-85
2022/04/15 16:34:23;;;;;;;6.28;4.85;;;12.50;99.90;;;;;;4888883;28;20043;-84
2022/04/15 16:36:53;;;;;;;3.20;2.90;;;12.50;99.90;;;;;;4897849;28;20154;-87
2022/04/15 16:39:28;;;;;;;3.22;2.50;;;12.40;99.90;;;;;;4931936;28;20043;-88
2022/04/15 16:41:58;;;;;;;3.42;2.00;;;12.50;99.90;;;;;;4931182;28;20051;-86
2022/04/15 16:44:29;;;;;;;4.57;2.70;;;12.40;99.90;;;;;;4949508;28;20032;-86
2022/04/15 16:46:58;;;;;;;3.28;2.75;;;12.40;99.90;;;;;;4901623;28;20031;-86
2022/04/15 16:49:26;;;;;;;4.82;3.03;;;12.40;99.90;;;;;;4914887;28;20479;-82
2022/04/15 16:51:53;;;;;;;4.28;3.55;;;12.40;99.90;;;;;;4943814;28;20039;-84
2022/04/15 16:59:54;;;;;;;5.50;4.53;;;12.30;99.90;;;;;;5018876;28;20405;-85
2022/04/15 17:02:20;;;;;;;4.20;3.45;;;12.20;99.90;;;;;;5007076;28;20027;-85
2022/04/15 17:04:47;;;;;;;7.43;5.55;;;12.10;99.90;;;;;;4992358;28;20041;-85
2022/04/15 17:07:14;;;;;;;5.70;3.63;;;12.10;99.90;;;;;;4988202;28;20040;-84
2022/04/15 17:09:41;;;;;;;6.20;4.50;;;12.10;99.90;;;;;;5020377;28;20038;-83
2022/04/15 17:12:10;;;;;;;5.70;4.60;;;12.00;99.90;;;;;;5006661;28;20049;-84
2022/04/15 17:14:37;;;;;;;7.18;4.60;;;12.00;99.90;;;;;;5008174;28;20037;-83
2022/04/15 17:17:07;;;;;;;6.72;5.28;;;12.00;99.90;;;;;;5023754;28;20033;-83
2022/04/15 17:20:16;;;;;;;4.60;3.60;;;11.90;99.90;;;;;;5025525;28;20044;-85
2022/04/15 17:27:11;;;;;;;7.80;6.03;;;11.90;99.90;;;;;;4936277;28;20032;-83
2022/04/15 17:29:44;;;;;;;8.55;5.18;;;11.80;99.90;;;;;;4938203;28;20051;-83
2022/04/15 17:32:14;;;;;;;5.72;4.68;;;11.70;99.90;;;;;;4949137;28;20054;-86
2022/04/15 17:34:52;;;;;;;12.63;8.80;;;11.70;99.90;;;;;;4965136;28;20062;-82
2022/04/15 17:37:24;;;;;;;17.98;10.65;;;11.70;99.90;;;;;;4950566;28;20034;-89
2022/04/15 17:39:52;;;;;;;12.20;8.20;;;11.70;99.90;;;;;;4930437;28;20043;-84
2022/04/15 17:42:24;;;;;;;7.22;4.63;;;11.70;99.90;;;;;;4948622;28;20037;-89
2022/04/15 17:44:59;;;;;;;13.27;7.72;;;11.70;99.90;;;;;;4966375;28;20039;-90
2022/04/15 17:47:27;;;;;;;16.85;10.27;;;11.70;99.90;;;;;;4936323;28;20381;-91
2022/04/15 17:49:57;;;;;;;13.07;9.77;;;11.70;99.90;;;;;;4921063;28;20038;-82